Time;durP1;ratioP1;P1;durP2;ratioP2;P2;SDS_P1;SDS_P2;PMS_P1;PMS_P2;Temp;Humidity;BMP_temperature;BMP_pressure;BME280_temperature;BME280_humidity;BME280_pressure;Samples;Min_cycle;Max_cycle;Signal;HPM_P1;HPM_P2
2022/09/03 00:02:26;;;;;;;2.00;1.10;;;;;;;;;;5020462;28;20423;-67
2022/09/03 00:05:28;;;;;;;2.83;1.25;;;;;;;;;;5036016;28;20083;-66
2022/09/03 00:08:03;;;;;;;1.45;0.90;;;;;;;;;;4953939;28;20550;-67
2022/09/03 00:10:43;;;;;;;1.17;0.80;;;;;;;;;;5036655;28;20045;-67
2022/09/03 00:13:13;;;;;;;2.80;1.10;;;;;;;;;;5036584;28;20055;-67
2022/09/03 00:15:40;;;;;;;1.20;1.10;;;;;;;;;;5026197;28;20053;-66
2022/09/03 00:18:13;;;;;;;1.40;1.13;;;;;;;;;;5037025;28;20454;-66
2022/09/03 00:20:50;;;;;;;2.22;1.00;;;;;;;;;;5021655;28;20057;-66
2022/09/03 00:23:22;;;;;;;4.43;1.00;;;;;;;;;;5021887;28;20052;-67
2022/09/03 00:26:10;;;;;;;1.25;0.80;;;;;;;;;;5026933;28;20075;-66
2022/09/03 00:28:54;;;;;;;2.13;0.85;;;;;;;;;;5042695;28;20049;-66
2022/09/03 00:31:37;;;;;;;1.38;1.10;;;;;;;;;;5020361;28;20053;-67
2022/09/03 00:34:11;;;;;;;1.58;0.95;;;;;;;;;;5021059;28;20492;-67
2022/09/03 00:36:42;;;;;;;1.70;1.13;;;;;;;;;;5019715;28;20049;-67
2022/09/03 00:39:14;;;;;;;1.55;1.10;;;;;;;;;;5018651;28;20060;-66
2022/09/03 00:42:07;;;;;;;5.68;1.17;;;;;;;;;;5035784;28;20127;-66
2022/09/03 00:44:54;;;;;;;1.98;0.90;;;;;;;;;;5035926;28;20686;-66
2022/09/03 00:47:20;;;;;;;0.77;0.68;;;;;;;;;;5035454;28;20049;-67
2022/09/03 00:50:08;;;;;;;2.28;0.98;;;;;;;;;;5052315;28;20056;-66
2022/09/03 00:53:10;;;;;;;2.92;1.05;;;;;;;;;;5019504;28;20052;-67
2022/09/03 00:56:01;;;;;;;2.42;1.00;;;;;;;;;;5010809;28;20049;-67
2022/09/03 00:58:47;;;;;;;1.73;0.70;;;;;;;;;;5019425;28;20053;-67
2022/09/03 01:01:22;;;;;;;2.60;2.20;;;;;;;;;;5052506;28;20056;-66
2022/09/03 01:04:20;;;;;;;3.90;1.13;;;;;;;;;;5035984;28;20076;-67
2022/09/03 01:06:52;;;;;;;1.20;1.10;;;;;;;;;;5029597;28;20053;-66
2022/09/03 01:09:35;;;;;;;4.75;1.23;;;;;;;;;;5051988;28;20059;-66
2022/09/03 01:12:34;;;;;;;1.33;0.90;;;;;;;;;;5034790;28;20110;-66
2022/09/03 01:15:31;;;;;;;1.20;0.88;;;;;;;;;;5011940;28;20057;-68
2022/09/03 01:18:16;;;;;;;2.40;1.20;;;;;;;;;;5055267;28;20045;-67
2022/09/03 01:20:58;;;;;;;2.25;1.10;;;;;;;;;;5034676;28;20045;-67
2022/09/03 01:23:43;;;;;;;2.80;1.33;;;;;;;;;;5041884;28;20067;-67
2022/09/03 01:26:35;;;;;;;1.70;1.10;;;;;;;;;;5059847;28;20049;-67
2022/09/03 01:29:32;;;;;;;2.40;1.15;;;;;;;;;;5017687;28;20053;-67
2022/09/03 01:32:46;;;;;;;2.75;1.10;;;;;;;;;;5048162;28;20048;-67
2022/09/03 01:35:31;;;;;;;3.60;1.10;;;;;;;;;;4951449;28;20514;-67
2022/09/03 01:38:36;;;;;;;1.45;1.00;;;;;;;;;;5043627;28;20078;-66
2022/09/03 01:44:18;;;;;;;0.88;0.88;;;;;;;;;;5051859;28;20057;-67
2022/09/03 01:46:45;;;;;;;1.75;1.00;;;;;;;;;;5051557;28;20445;-67
2022/09/03 01:49:36;;;;;;;3.05;1.08;;;;;;;;;;5017651;28;20128;-66
2022/09/03 01:52:06;;;;;;;0.90;0.90;;;;;;;;;;5020005;28;20048;-66
2022/09/03 01:54:39;;;;;;;1.67;0.90;;;;;;;;;;5034147;28;20049;-67
2022/09/03 01:57:05;;;;;;;1.35;1.00;;;;;;;;;;5051573;28;20428;-67
2022/09/03 02:00:00;;;;;;;1.30;0.80;;;;;;;;;;5051477;28;20087;-66
2022/09/03 02:02:27;;;;;;;1.10;0.98;;;;;;;;;;5017903;28;20055;-66
2022/09/03 02:05:06;;;;;;;1.10;1.00;;;;;;;;;;5051622;28;20072;-67
2022/09/03 02:07:45;;;;;;;1.20;1.00;;;;;;;;;;5034317;28;20048;-66
2022/09/03 02:10:23;;;;;;;2.25;1.00;;;;;;;;;;5051259;28;20089;-67
2022/09/03 02:12:52;;;;;;;2.00;1.10;;;;;;;;;;5033950;28;20225;-67
2022/09/03 02:15:20;;;;;;;1.95;1.17;;;;;;;;;;5024632;28;20060;-66
2022/09/03 02:17:48;;;;;;;1.10;0.80;;;;;;;;;;5053421;28;20033;-68
2022/09/03 02:20:21;;;;;;;1.67;1.10;;;;;;;;;;5040777;28;20055;-67
2022/09/03 02:22:48;;;;;;;;;;;;;;;;;;5040186;28;20068;-67
2022/09/03 02:25:18;;;;;;;1.17;0.93;;;;;;;;;;5053155;28;20387;-67
2022/09/03 02:27:44;;;;;;;2.08;1.15;;;;;;;;;;5072415;28;20072;-67
2022/09/03 02:30:11;;;;;;;0.80;0.80;;;;;;;;;;5031678;28;20056;-67
2022/09/03 02:32:38;;;;;;;0.82;0.80;;;;;;;;;;5033568;28;20057;-67
2022/09/03 02:35:05;;;;;;;1.23;0.93;;;;;;;;;;5033627;28;20056;-67
2022/09/03 02:37:32;;;;;;;2.72;1.15;;;;;;;;;;5033890;28;20056;-67
2022/09/03 02:39:58;;;;;;;1.00;0.90;;;;;;;;;;5050944;28;20500;-66
2022/09/03 02:42:26;;;;;;;1.75;1.10;;;;;;;;;;5051187;28;20052;-66
2022/09/03 02:44:56;;;;;;;1.95;0.98;;;;;;;;;;5051287;28;20056;-66
2022/09/03 02:47:23;;;;;;;3.53;1.10;;;;;;;;;;5018029;28;20045;-67
2022/09/03 02:49:49;;;;;;;5.03;1.40;;;;;;;;;;5037206;28;20049;-67
2022/09/03 02:52:16;;;;;;;4.60;1.10;;;;;;;;;;5055070;28;20071;-66
2022/09/03 02:54:44;;;;;;;1.75;1.17;;;;;;;;;;5054795;28;20049;-67
2022/09/03 02:57:13;;;;;;;1.23;1.10;;;;;;;;;;5037370;28;20416;-67
2022/09/03 02:59:43;;;;;;;1.30;1.20;;;;;;;;;;5036815;28;20446;-66
2022/09/03 03:02:10;;;;;;;2.85;1.10;;;;;;;;;;5037180;28;20049;-66
2022/09/03 03:04:37;;;;;;;2.20;1.20;;;;;;;;;;5037243;28;20053;-66
2022/09/03 03:07:04;;;;;;;1.50;0.90;;;;;;;;;;5054725;28;20049;-66
2022/09/03 03:09:31;;;;;;;1.42;0.98;;;;;;;;;;5036754;28;20049;-67
2022/09/03 03:11:58;;;;;;;2.35;1.38;;;;;;;;;;5054375;28;20518;-66
2022/09/03 03:14:24;;;;;;;1.13;0.93;;;;;;;;;;5036743;28;20051;-66
2022/09/03 03:16:51;;;;;;;2.20;1.00;;;;;;;;;;5054626;28;20131;-66
2022/09/03 03:19:18;;;;;;;1.45;0.82;;;;;;;;;;5054330;28;20483;-66
2022/09/03 03:21:44;;;;;;;1.33;1.00;;;;;;;;;;5091293;22;20048;-69
2022/09/03 03:24:11;;;;;;;2.00;1.02;;;;;;;;;;5074843;28;20055;-70
2022/09/03 03:26:38;;;;;;;1.40;1.08;;;;;;;;;;5074549;28;20238;-69
2022/09/03 03:29:04;;;;;;;2.58;1.08;;;;;;;;;;5074833;28;20055;-69
2022/09/03 03:31:31;;;;;;;2.50;1.50;;;;;;;;;;5074994;28;20052;-67
2022/09/03 03:34:00;;;;;;;1.35;1.10;;;;;;;;;;5074978;28;20415;-67
2022/09/03 03:36:30;;;;;;;1.52;1.40;;;;;;;;;;5074670;28;20052;-67
2022/09/03 03:38:57;;;;;;;1.80;1.15;;;;;;;;;;5074484;28;20057;-67
2022/09/03 03:41:34;;;;;;;1.65;1.00;;;;;;;;;;5074500;28;20052;-68
2022/09/03 03:44:03;;;;;;;3.20;1.17;;;;;;;;;;5074626;28;20053;-68
2022/09/03 03:46:33;;;;;;;1.10;0.90;;;;;;;;;;5074627;28;20060;-67
2022/09/03 03:49:00;;;;;;;1.45;1.35;;;;;;;;;;5074270;28;20058;-68
2022/09/03 03:51:27;;;;;;;3.30;1.10;;;;;;;;;;5074469;28;20048;-68
2022/09/03 03:53:58;;;;;;;2.22;1.20;;;;;;;;;;5074368;28;20045;-68
2022/09/03 03:56:29;;;;;;;2.75;1.20;;;;;;;;;;5074547;28;20075;-68
2022/09/03 03:58:58;;;;;;;1.40;1.30;;;;;;;;;;5073390;28;20064;-68
2022/09/03 04:01:26;;;;;;;2.83;1.23;;;;;;;;;;5074213;28;20049;-68
2022/09/03 04:03:56;;;;;;;2.38;1.40;;;;;;;;;;5074174;28;20117;-67
2022/09/03 04:06:23;;;;;;;1.67;1.17;;;;;;;;;;5073912;28;20510;-68
2022/09/03 04:08:49;;;;;;;1.20;1.10;;;;;;;;;;5074078;28;20052;-68
2022/09/03 04:11:22;;;;;;;1.90;1.30;;;;;;;;;;5074090;28;20052;-68
2022/09/03 04:13:49;;;;;;;1.35;1.10;;;;;;;;;;5074107;28;20060;-68
2022/09/03 04:16:35;;;;;;;1.77;1.48;;;;;;;;;;5073927;28;20509;-69
2022/09/03 04:19:01;;;;;;;2.80;1.30;;;;;;;;;;5073624;28;20079;-67
2022/09/03 04:21:29;;;;;;;3.33;1.23;;;;;;;;;;5055802;28;20059;-68
2022/09/03 04:23:56;;;;;;;1.48;1.10;;;;;;;;;;5073837;28;20494;-68
2022/09/03 04:26:31;;;;;;;4.85;1.25;;;;;;;;;;5073976;28;20052;-67
2022/09/03 04:28:59;;;;;;;1.65;1.17;;;;;;;;;;5073458;28;20055;-68
2022/09/03 04:31:26;;;;;;;2.47;1.20;;;;;;;;;;5055468;28;20057;-68
2022/09/03 04:33:53;;;;;;;1.83;1.00;;;;;;;;;;5073697;28;20048;-68
2022/09/03 04:36:22;;;;;;;1.73;1.20;;;;;;;;;;5073787;28;20131;-68
2022/09/03 04:38:50;;;;;;;3.97;1.65;;;;;;;;;;5055585;28;20060;-68
2022/09/03 04:41:18;;;;;;;1.40;1.30;;;;;;;;;;5073314;28;20059;-68
2022/09/03 04:43:47;;;;;;;1.80;1.40;;;;;;;;;;5073293;28;20071;-67
2022/09/03 04:46:17;;;;;;;3.58;1.42;;;;;;;;;;5073508;28;20391;-68
2022/09/03 04:48:47;;;;;;;3.47;1.45;;;;;;;;;;5073065;28;20446;-68
2022/09/03 04:51:15;;;;;;;2.63;1.55;;;;;;;;;;5073079;28;20048;-67
2022/09/03 04:53:44;;;;;;;1.92;1.33;;;;;;;;;;5073131;28;20081;-67
2022/09/03 04:56:20;;;;;;;2.38;1.30;;;;;;;;;;5072809;28;20053;-68
2022/09/03 04:58:47;;;;;;;4.28;1.42;;;;;;;;;;5055315;28;20102;-68
2022/09/03 05:01:18;;;;;;;2.00;1.50;;;;;;;;;;5072927;28;20555;-68
2022/09/03 05:03:45;;;;;;;1.75;1.33;;;;;;;;;;5073028;28;20045;-68
2022/09/03 05:06:13;;;;;;;2.33;1.48;;;;;;;;;;5073024;28;20048;-67
2022/09/03 05:08:40;;;;;;;1.70;1.20;;;;;;;;;;5072653;28;20435;-67
2022/09/03 05:11:06;;;;;;;1.40;1.30;;;;;;;;;;5071652;28;20040;-67
2022/09/03 05:13:34;;;;;;;1.85;1.60;;;;;;;;;;5073085;28;20048;-67
2022/09/03 05:16:02;;;;;;;1.20;1.05;;;;;;;;;;5072938;28;20056;-67
2022/09/03 05:18:29;;;;;;;3.67;1.48;;;;;;;;;;5072675;28;20056;-68
2022/09/03 05:21:00;;;;;;;2.60;1.50;;;;;;;;;;5072550;28;20056;-68
2022/09/03 05:23:27;;;;;;;2.92;1.90;;;;;;;;;;5072487;28;20048;-68
2022/09/03 05:25:59;;;;;;;1.90;1.20;;;;;;;;;;5054906;28;20052;-67
2022/09/03 05:28:29;;;;;;;2.75;1.27;;;;;;;;;;5072319;28;20057;-68
2022/09/03 05:30:59;;;;;;;1.50;1.40;;;;;;;;;;5055187;28;20052;-68
2022/09/03 05:33:26;;;;;;;2.45;1.27;;;;;;;;;;5072319;28;20211;-68
2022/09/03 05:36:03;;;;;;;2.05;1.40;;;;;;;;;;5072187;28;20491;-68
2022/09/03 05:38:30;;;;;;;2.00;1.20;;;;;;;;;;5072445;28;20048;-67
2022/09/03 05:41:01;;;;;;;1.88;1.50;;;;;;;;;;5054684;28;20057;-67
2022/09/03 05:43:28;;;;;;;2.20;1.20;;;;;;;;;;5072501;28;20421;-67
2022/09/03 05:45:59;;;;;;;2.78;1.30;;;;;;;;;;5072444;28;20424;-67
2022/09/03 05:48:27;;;;;;;1.30;1.20;;;;;;;;;;5071952;28;20052;-68
2022/09/03 05:51:00;;;;;;;2.83;1.50;;;;;;;;;;5054342;28;20040;-68
2022/09/03 05:53:28;;;;;;;2.05;1.27;;;;;;;;;;5072259;28;20126;-67
2022/09/03 05:56:04;;;;;;;1.30;1.20;;;;;;;;;;5054588;28;20117;-68
2022/09/03 05:58:34;;;;;;;2.58;1.45;;;;;;;;;;5072030;28;20425;-68
2022/09/03 06:01:20;;;;;;;3.20;1.50;;;;;;;;;;5071989;28;20414;-68
2022/09/03 06:03:52;;;;;;;1.73;1.38;;;;;;;;;;5072167;28;20059;-68
2022/09/03 06:06:24;;;;;;;3.10;1.30;;;;;;;;;;5054416;28;20117;-68
2022/09/03 06:08:52;;;;;;;3.17;1.37;;;;;;;;;;5072040;28;20445;-68
2022/09/03 06:11:18;;;;;;;1.50;1.40;;;;;;;;;;5071765;28;20058;-69
2022/09/03 06:13:46;;;;;;;2.38;1.70;;;;;;;;;;5072455;28;20448;-69
2022/09/03 06:16:12;;;;;;;2.47;1.30;;;;;;;;;;5072068;28;20505;-68
2022/09/03 06:18:39;;;;;;;4.43;1.55;;;;;;;;;;5071871;28;20060;-68
2022/09/03 06:21:06;;;;;;;2.42;1.50;;;;;;;;;;5071981;28;20041;-68
2022/09/03 06:23:34;;;;;;;3.53;1.33;;;;;;;;;;5074641;28;20057;-68
2022/09/03 06:26:07;;;;;;;2.90;1.25;;;;;;;;;;5075922;28;20123;-68
2022/09/03 06:28:35;;;;;;;1.90;1.48;;;;;;;;;;5075897;28;20553;-69
2022/09/03 06:31:02;;;;;;;2.58;1.42;;;;;;;;;;5075924;28;20048;-68
2022/09/03 06:33:30;;;;;;;1.60;1.42;;;;;;;;;;5076274;28;20129;-68
2022/09/03 06:35:58;;;;;;;3.38;1.60;;;;;;;;;;5075843;28;20053;-69
2022/09/03 06:38:26;;;;;;;2.28;1.30;;;;;;;;;;5075536;28;20098;-68
2022/09/03 06:40:57;;;;;;;2.25;1.38;;;;;;;;;;5057891;28;20050;-68
2022/09/03 06:43:26;;;;;;;2.55;1.67;;;;;;;;;;5075788;28;20049;-67
2022/09/03 06:45:56;;;;;;;3.80;1.42;;;;;;;;;;5075864;28;20048;-68
2022/09/03 06:48:24;;;;;;;2.78;1.33;;;;;;;;;;5075555;28;20040;-68
2022/09/03 06:50:58;;;;;;;3.13;1.55;;;;;;;;;;5075079;28;20044;-68
2022/09/03 06:53:26;;;;;;;2.15;1.42;;;;;;;;;;5058026;28;20052;-68
2022/09/03 06:56:00;;;;;;;2.97;1.43;;;;;;;;;;5075728;28;20083;-68
2022/09/03 06:58:30;;;;;;;3.47;1.60;;;;;;;;;;5074914;28;20294;-68
2022/09/03 07:01:11;;;;;;;2.17;1.52;;;;;;;;;;5075210;28;20041;-68
2022/09/03 07:03:40;;;;;;;1.67;1.30;;;;;;;;;;5075486;28;20424;-67
2022/09/03 07:06:17;;;;;;;1.48;1.27;;;;;;;;;;5075209;28;20052;-67
2022/09/03 07:08:45;;;;;;;2.85;1.50;;;;;;;;;;5075156;28;20556;-68
2022/09/03 07:11:13;;;;;;;4.45;1.60;;;;;;;;;;5075592;28;20067;-69
2022/09/03 07:13:43;;;;;;;2.33;1.58;;;;;;;;;;5075179;28;20052;-69
2022/09/03 07:16:15;;;;;;;2.83;1.63;;;;;;;;;;5074913;28;20045;-68
2022/09/03 07:18:43;;;;;;;3.97;1.40;;;;;;;;;;5057286;28;20052;-68
2022/09/03 07:21:18;;;;;;;4.57;1.80;;;;;;;;;;5074556;28;20052;-68
2022/09/03 07:23:46;;;;;;;4.13;1.63;;;;;;;;;;5074826;28;20526;-68
2022/09/03 07:26:15;;;;;;;6.30;1.60;;;;;;;;;;5074542;28;20059;-68
2022/09/03 07:28:42;;;;;;;3.03;1.60;;;;;;;;;;5074401;28;20049;-67
2022/09/03 07:31:14;;;;;;;4.28;1.58;;;;;;;;;;5074580;28;20512;-68
2022/09/03 07:33:41;;;;;;;3.73;1.53;;;;;;;;;;5074183;28;20045;-69
2022/09/03 07:36:13;;;;;;;3.05;1.30;;;;;;;;;;5074228;28;20282;-68
2022/09/03 07:38:46;;;;;;;2.08;1.50;;;;;;;;;;5056985;28;20091;-68
2022/09/03 07:41:13;;;;;;;2.45;1.40;;;;;;;;;;5074768;28;20051;-68
2022/09/03 07:43:54;;;;;;;2.90;1.60;;;;;;;;;;5074607;28;20048;-68
2022/09/03 07:46:22;;;;;;;3.58;1.33;;;;;;;;;;5074808;28;20063;-68
2022/09/03 07:48:55;;;;;;;4.65;1.38;;;;;;;;;;5076418;28;20045;-69
2022/09/03 07:51:25;;;;;;;2.30;1.52;;;;;;;;;;5075677;28;20048;-69
2022/09/03 07:53:54;;;;;;;1.33;1.17;;;;;;;;;;5075839;28;20064;-68
2022/09/03 07:56:21;;;;;;;1.55;1.45;;;;;;;;;;5076197;28;20049;-70
2022/09/03 07:58:48;;;;;;;3.10;1.80;;;;;;;;;;5074878;28;20056;-69
2022/09/03 08:01:19;;;;;;;3.05;2.30;;;;;;;;;;5074104;28;20056;-69
2022/09/03 08:03:47;;;;;;;4.03;1.80;;;;;;;;;;5074163;28;20055;-69
2022/09/03 08:06:15;;;;;;;1.50;1.40;;;;;;;;;;5056515;28;20048;-69
2022/09/03 08:08:44;;;;;;;1.55;1.42;;;;;;;;;;5073830;28;20048;-69
2022/09/03 08:11:12;;;;;;;2.67;1.52;;;;;;;;;;5073826;28;20132;-69
2022/09/03 08:13:43;;;;;;;3.10;1.67;;;;;;;;;;5074013;28;20048;-69
2022/09/03 08:16:11;;;;;;;1.80;1.60;;;;;;;;;;5073932;28;20063;-69
2022/09/03 08:18:38;;;;;;;4.00;1.77;;;;;;;;;;5073952;28;20106;-69
2022/09/03 08:21:14;;;;;;;2.80;1.90;;;;;;;;;;5056265;28;20051;-69
2022/09/03 08:23:42;;;;;;;2.65;1.60;;;;;;;;;;5074028;28;20135;-69
2022/09/03 08:26:09;;;;;;;4.20;2.15;;;;;;;;;;5056369;28;20055;-69
2022/09/03 08:28:36;;;;;;;2.08;1.88;;;;;;;;;;5073570;28;20048;-69
2022/09/03 08:31:06;;;;;;;2.08;1.70;;;;;;;;;;5073619;28;20055;-69
2022/09/03 08:33:36;;;;;;;2.03;1.83;;;;;;;;;;5074026;28;20150;-69
2022/09/03 08:36:14;;;;;;;3.13;2.08;;;;;;;;;;5073759;28;20070;-68
2022/09/03 08:38:42;;;;;;;5.15;1.90;;;;;;;;;;5073391;28;20469;-69
2022/09/03 08:41:17;;;;;;;2.55;2.10;;;;;;;;;;5073253;28;20045;-69
2022/09/03 08:43:52;;;;;;;3.05;2.28;;;;;;;;;;5056296;28;20052;-69
2022/09/03 08:46:19;;;;;;;4.13;2.83;;;;;;;;;;5073458;28;20063;-69
2022/09/03 08:48:47;;;;;;;3.65;2.55;;;;;;;;;;5055655;28;20052;-70
2022/09/03 08:51:15;;;;;;;2.97;2.22;;;;;;;;;;5072924;28;20048;-69
2022/09/03 08:53:46;;;;;;;3.00;1.88;;;;;;;;;;5055903;28;20051;-69
2022/09/03 08:56:19;;;;;;;5.15;2.15;;;;;;;;;;5055872;28;20056;-69
2022/09/03 08:58:46;;;;;;;;;;;;;;;;;;5040181;28;20131;-69
2022/09/03 09:01:35;;;;;;;2.72;1.92;;;;;;;;;;5073160;28;19934;-69
2022/09/03 09:04:38;;;;;;;3.45;1.75;;;;;;;;;;5073075;28;20636;-69
2022/09/03 09:07:37;;;;;;;4.15;2.05;;;;;;;;;;5030841;28;20051;-70
2022/09/03 09:10:09;;;;;;;3.08;2.00;;;;;;;;;;5028494;28;20060;-69
2022/09/03 09:12:42;;;;;;;2.45;2.00;;;;;;;;;;5055678;28;20044;-70
2022/09/03 09:15:37;;;;;;;2.45;2.00;;;;;;;;;;5073201;28;20045;-69
2022/09/03 09:18:17;;;;;;;3.27;2.23;;;;;;;;;;5056691;28;20529;-69
2022/09/03 09:21:25;;;;;;;2.97;1.85;;;;;;;;;;5086126;22;20064;-67
2022/09/03 09:23:53;;;;;;;4.75;2.83;;;;;;;;;;5046640;28;20071;-64
2022/09/03 09:26:20;;;;;;;3.58;2.35;;;;;;;;;;5038093;28;20052;-64
2022/09/03 09:29:02;;;;;;;2.10;1.83;;;;;;;;;;5072003;28;20052;-64
2022/09/03 09:31:30;;;;;;;3.97;2.50;;;;;;;;;;5054202;28;20049;-64
2022/09/03 09:34:05;;;;;;;2.90;1.95;;;;;;;;;;5054585;28;20045;-64
2022/09/03 09:36:41;;;;;;;3.25;2.20;;;;;;;;;;5071947;28;20054;-64
2022/09/03 09:39:11;;;;;;;3.58;2.20;;;;;;;;;;5054144;28;20048;-65
2022/09/03 09:41:37;;;;;;;3.35;2.30;;;;;;;;;;5071714;28;20052;-65
2022/09/03 09:44:04;;;;;;;3.55;2.00;;;;;;;;;;5072039;28;20048;-64
2022/09/03 09:46:41;;;;;;;2.80;2.25;;;;;;;;;;5072003;28;20060;-64
2022/09/03 09:49:42;;;;;;;2.40;2.10;;;;;;;;;;5038054;28;20052;-64
2022/09/03 09:52:14;;;;;;;5.05;2.10;;;;;;;;;;5040158;28;20048;-64
2022/09/03 09:54:42;;;;;;;4.05;2.38;;;;;;;;;;5054292;28;20553;-64
2022/09/03 09:57:23;;;;;;;3.10;1.92;;;;;;;;;;5071465;28;20395;-64
2022/09/03 10:00:00;;;;;;;2.33;2.13;;;;;;;;;;5071642;28;20052;-64
2022/09/03 10:02:27;;;;;;;2.67;2.30;;;;;;;;;;5071568;28;20491;-64
2022/09/03 10:04:56;;;;;;;3.63;2.20;;;;;;;;;;5071665;28;20052;-64
2022/09/03 10:07:30;;;;;;;3.42;2.25;;;;;;;;;;5037582;28;20053;-65
2022/09/03 10:10:04;;;;;;;3.15;2.22;;;;;;;;;;5053983;28;20048;-65
2022/09/03 10:12:58;;;;;;;3.95;2.30;;;;;;;;;;5071666;28;20131;-64
2022/09/03 10:15:26;;;;;;;;;;;;;;;;;;5072309;28;20065;-66
2022/09/03 10:17:53;;;;;;;2.00;1.80;;;;;;;;;;5053767;28;20012;-65
2022/09/03 10:20:40;;;;;;;5.68;2.15;;;;;;;;;;5071484;28;20495;-65
2022/09/03 10:23:09;;;;;;;1.98;1.75;;;;;;;;;;5054086;28;20049;-65
2022/09/03 10:26:08;;;;;;;2.45;2.05;;;;;;;;;;5071517;28;20052;-65
2022/09/03 10:28:39;;;;;;;3.05;1.92;;;;;;;;;;5061125;28;20418;-65
2022/09/03 10:31:31;;;;;;;2.10;2.00;;;;;;;;;;5038220;28;20052;-65
2022/09/03 10:34:35;;;;;;;2.53;2.20;;;;;;;;;;5056392;28;20118;-66
2022/09/03 10:37:58;;;;;;;3.35;2.10;;;;;;;;;;5071592;28;20053;-65
2022/09/03 10:40:47;;;;;;;4.07;2.10;;;;;;;;;;5009359;28;20058;-66
2022/09/03 10:43:30;;;;;;;2.97;2.70;;;;;;;;;;5022601;28;20056;-64
2022/09/03 10:46:10;;;;;;;3.03;2.10;;;;;;;;;;5071294;28;20063;-65
2022/09/03 10:48:42;;;;;;;4.13;2.30;;;;;;;;;;5071099;28;20045;-65
2022/09/03 10:51:21;;;;;;;6.28;2.55;;;;;;;;;;5071330;28;20048;-65
2022/09/03 10:54:09;;;;;;;2.45;2.20;;;;;;;;;;5053656;28;20515;-65
2022/09/03 10:57:06;;;;;;;4.10;2.00;;;;;;;;;;5071232;28;20052;-65
2022/09/03 10:59:52;;;;;;;2.55;2.17;;;;;;;;;;5071031;28;20098;-66
2022/09/03 11:02:54;;;;;;;3.15;2.08;;;;;;;;;;5070944;28;20048;-66
2022/09/03 11:05:23;;;;;;;2.63;1.83;;;;;;;;;;5028415;28;20053;-66
2022/09/03 11:07:58;;;;;;;3.50;2.35;;;;;;;;;;5037221;28;20049;-65
2022/09/03 11:10:36;;;;;;;4.20;2.60;;;;;;;;;;5057231;28;20052;-66
2022/09/03 11:13:08;;;;;;;2.33;1.80;;;;;;;;;;5041575;28;20059;-66
2022/09/03 11:15:39;;;;;;;3.73;2.20;;;;;;;;;;5057076;28;20048;-65
2022/09/03 11:18:21;;;;;;;5.80;2.10;;;;;;;;;;5056886;28;20399;-65
2022/09/03 11:20:49;;;;;;;2.10;2.00;;;;;;;;;;5041802;28;20490;-66
2022/09/03 11:23:17;;;;;;;2.55;2.15;;;;;;;;;;5040691;28;20431;-66
2022/09/03 11:25:48;;;;;;;3.05;2.42;;;;;;;;;;5040971;28;20506;-66
2022/09/03 11:28:22;;;;;;;5.65;2.45;;;;;;;;;;5040583;28;20410;-65
2022/09/03 11:31:06;;;;;;;2.30;2.08;;;;;;;;;;5057118;28;20098;-66
2022/09/03 11:33:32;;;;;;;6.68;2.47;;;;;;;;;;5057624;28;20048;-64
2022/09/03 11:36:00;;;;;;;2.72;2.00;;;;;;;;;;5056576;28;20523;-65
2022/09/03 11:38:30;;;;;;;2.20;2.00;;;;;;;;;;5074032;28;20427;-65
2022/09/03 11:41:09;;;;;;;5.80;3.03;;;;;;;;;;5074283;28;20056;-64
2022/09/03 11:43:36;;;;;;;2.83;2.30;;;;;;;;;;5056385;28;20514;-65
2022/09/03 11:46:32;;;;;;;2.90;2.05;;;;;;;;;;5056354;28;20063;-65
2022/09/03 11:49:12;;;;;;;4.18;2.53;;;;;;;;;;5056980;28;20106;-65
2022/09/03 11:51:40;;;;;;;4.57;2.30;;;;;;;;;;5056197;28;20045;-66
2022/09/03 11:54:19;;;;;;;2.10;1.90;;;;;;;;;;5056430;28;20055;-65
2022/09/03 11:56:49;;;;;;;3.25;2.05;;;;;;;;;;5073916;28;20049;-65
2022/09/03 11:59:18;;;;;;;3.85;2.30;;;;;;;;;;5073486;28;20053;-65
2022/09/03 12:01:52;;;;;;;3.35;2.33;;;;;;;;;;5039519;28;20056;-64
2022/09/03 12:04:25;;;;;;;3.22;2.33;;;;;;;;;;5056127;28;20087;-65
2022/09/03 12:07:19;;;;;;;5.20;2.38;;;;;;;;;;5039499;28;20561;-65
2022/09/03 12:09:58;;;;;;;3.13;2.50;;;;;;;;;;5073281;28;20491;-65
2022/09/03 12:12:34;;;;;;;4.22;2.30;;;;;;;;;;5055825;28;20053;-65
2022/09/03 12:15:15;;;;;;;3.33;2.70;;;;;;;;;;5073402;28;20052;-64
2022/09/03 12:18:17;;;;;;;3.70;2.08;;;;;;;;;;5073550;28;20052;-66
2022/09/03 12:20:39;;;;;;;2.70;2.50;;;;;;;;;;5057799;28;20049;-64
2022/09/03 12:23:06;;;;;;;4.20;2.65;;;;;;;;;;5073207;28;20052;-65
2022/09/03 12:25:33;;;;;;;3.70;2.38;;;;;;;;;;5039227;28;20056;-65
2022/09/03 12:28:02;;;;;;;5.25;2.35;;;;;;;;;;5073040;28;20507;-63
2022/09/03 12:30:29;;;;;;;3.53;2.60;;;;;;;;;;5072969;28;20048;-65
2022/09/03 12:33:05;;;;;;;2.53;2.13;;;;;;;;;;5073031;28;20046;-65
2022/09/03 12:35:33;;;;;;;2.65;2.45;;;;;;;;;;5072939;28;20052;-64
2022/09/03 12:38:26;;;;;;;4.72;2.45;;;;;;;;;;5072580;28;20507;-64
2022/09/03 12:40:53;;;;;;;4.55;2.97;;;;;;;;;;5055037;28;20048;-65
2022/09/03 12:43:40;;;;;;;3.67;2.63;;;;;;;;;;5072720;28;20045;-64
2022/09/03 12:46:13;;;;;;;;;;;;;;;;;;5056710;28;20052;-65
2022/09/03 12:48:52;;;;;;;3.78;2.42;;;;;;;;;;5072622;28;20426;-65
2022/09/03 12:51:41;;;;;;;2.05;1.85;;;;;;;;;;5072480;28;20049;-65
2022/09/03 12:54:20;;;;;;;2.83;1.48;;;;;;;;;;5056947;28;20048;-64
2022/09/03 12:56:54;;;;;;;3.80;1.65;;;;;;;;;;5072747;28;20060;-65
2022/09/03 12:59:20;;;;;;;2.55;1.45;;;;;;;;;;5054995;28;20060;-64
2022/09/03 13:01:55;;;;;;;2.10;1.10;;;;;;;;;;5054791;28;20045;-65
2022/09/03 13:04:25;;;;;;;2.03;1.27;;;;;;;;;;5072565;28;20048;-65
2022/09/03 13:07:32;;;;;;;3.60;1.40;;;;;;;;;;5055058;28;20510;-65
2022/09/03 13:10:06;;;;;;;1.70;1.60;;;;;;;;;;5072231;28;20491;-65
2022/09/03 13:12:48;;;;;;;3.05;1.52;;;;;;;;;;5038584;28;20410;-65
2022/09/03 13:15:22;;;;;;;2.67;2.08;;;;;;;;;;5040734;28;20060;-64
2022/09/03 13:17:54;;;;;;;3.13;2.03;;;;;;;;;;5038313;28;20048;-65
2022/09/03 13:20:50;;;;;;;2.25;2.05;;;;;;;;;;5072095;28;20450;-64
2022/09/03 13:23:30;;;;;;;4.53;1.70;;;;;;;;;;5041958;28;20104;-65
2022/09/03 13:26:19;;;;;;;3.55;2.13;;;;;;;;;;5072288;28;20052;-66
2022/09/03 13:29:12;;;;;;;3.80;2.25;;;;;;;;;;5072062;28;20059;-66
2022/09/03 13:32:03;;;;;;;4.15;2.20;;;;;;;;;;5053964;28;20045;-66
2022/09/03 13:34:40;;;;;;;2.67;1.90;;;;;;;;;;5040380;28;20078;-65
2022/09/03 13:37:22;;;;;;;3.17;1.88;;;;;;;;;;5038775;28;20283;-65
2022/09/03 13:39:58;;;;;;;2.67;2.00;;;;;;;;;;5054256;28;20653;-66
2022/09/03 13:42:29;;;;;;;2.70;2.38;;;;;;;;;;5039072;28;20466;-66
2022/09/03 13:45:18;;;;;;;2.80;1.80;;;;;;;;;;5072247;28;20044;-66
2022/09/03 13:50:20;;;;;;;4.53;1.58;;;;;;;;;;5057177;28;20060;-66
2022/09/03 13:50:39;;;;;;;;;;;;;;;;;;5072184;28;20052;-65
2022/09/03 13:53:25;;;;;;;3.92;1.67;;;;;;;;;;5054112;28;19920;-64
2022/09/03 13:55:53;;;;;;;1.40;1.20;;;;;;;;;;5071715;28;20048;-65
2022/09/03 13:58:41;;;;;;;3.53;1.45;;;;;;;;;;5037450;28;20052;-67
2022/09/03 14:01:22;;;;;;;7.78;1.52;;;;;;;;;;5056564;28;20071;-66
2022/09/03 14:03:54;;;;;;;2.90;1.10;;;;;;;;;;5053902;28;20049;-66
2022/09/03 14:06:56;;;;;;;3.30;0.70;;;;;;;;;;5037479;28;20062;-66
2022/09/03 14:09:22;;;;;;;2.03;0.85;;;;;;;;;;5057365;28;20318;-66
2022/09/03 14:12:05;;;;;;;1.80;1.20;;;;;;;;;;5071303;28;20518;-66
2022/09/03 14:14:52;;;;;;;1.27;1.05;;;;;;;;;;5038433;28;20060;-66
2022/09/03 14:17:42;;;;;;;2.15;0.93;;;;;;;;;;5037875;28;20102;-66
2022/09/03 14:20:23;;;;;;;3.67;0.98;;;;;;;;;;5071399;28;20052;-65
2022/09/03 14:23:06;;;;;;;1.42;1.00;;;;;;;;;;5054517;28;20052;-64
2022/09/03 14:25:33;;;;;;;;;;;;;;;;;;5038276;28;20048;-65
2022/09/03 14:28:32;;;;;;;2.50;1.30;;;;;;;;;;5053325;28;20380;-65
2022/09/03 14:31:43;;;;;;;2.45;0.93;;;;;;;;;;5071633;28;20052;-65
2022/09/03 14:34:35;;;;;;;2.20;1.35;;;;;;;;;;5033834;28;20056;-66
2022/09/03 14:37:04;;;;;;;2.05;1.25;;;;;;;;;;5071595;28;20094;-64
2022/09/03 14:40:15;;;;;;;1.65;1.10;;;;;;;;;;5071054;28;20469;-65
2022/09/03 14:43:13;;;;;;;4.22;1.52;;;;;;;;;;4999694;28;20121;-66
2022/09/03 14:46:10;;;;;;;1.88;1.60;;;;;;;;;;5044394;28;20059;-66
2022/09/03 14:49:13;;;;;;;3.88;1.38;;;;;;;;;;5075149;28;20083;-65
2022/09/03 14:52:00;;;;;;;2.30;1.20;;;;;;;;;;5028018;28;20048;-65
2022/09/03 14:54:48;;;;;;;1.95;1.30;;;;;;;;;;5042307;28;20048;-66
2022/09/03 14:57:18;;;;;;;2.03;1.15;;;;;;;;;;5060160;28;20052;-64
2022/09/03 15:00:00;;;;;;;2.28;1.35;;;;;;;;;;5074924;28;20064;-65
2022/09/03 15:02:32;;;;;;;2.97;1.10;;;;;;;;;;5074807;28;20052;-65
2022/09/03 15:05:35;;;;;;;1.60;1.08;;;;;;;;;;5074722;28;20326;-64
2022/09/03 15:08:15;;;;;;;1.95;1.30;;;;;;;;;;5074715;28;20049;-65
2022/09/03 15:10:46;;;;;;;1.77;0.98;;;;;;;;;;5041004;28;20453;-65
2022/09/03 15:13:17;;;;;;;2.10;1.23;;;;;;;;;;5057107;28;20053;-66
2022/09/03 15:16:05;;;;;;;2.42;1.00;;;;;;;;;;5064937;28;20510;-64
2022/09/03 15:18:47;;;;;;;1.83;1.27;;;;;;;;;;5056147;28;20048;-65
2022/09/03 15:21:13;;;;;;;3.13;1.35;;;;;;;;;;5073208;28;20052;-64
2022/09/03 15:24:01;;;;;;;2.05;1.10;;;;;;;;;;5074335;28;20441;-65
2022/09/03 15:26:35;;;;;;;1.33;1.10;;;;;;;;;;5040811;28;20556;-65
2022/09/03 15:29:07;;;;;;;3.30;1.80;;;;;;;;;;5056958;28;20044;-65
2022/09/03 15:31:40;;;;;;;3.05;1.13;;;;;;;;;;5073571;28;20052;-65
2022/09/03 15:34:11;;;;;;;3.25;1.30;;;;;;;;;;5074122;28;20041;-65
2022/09/03 15:36:44;;;;;;;1.70;1.10;;;;;;;;;;5050551;28;20048;-67
2022/09/03 15:39:25;;;;;;;2.42;1.30;;;;;;;;;;5029809;28;20514;-71